sensor_id;sensor_type;location;lat;lon;timestamp;pressure;altitude;pressure_sealevel;temperature;humidity
32131;BME280;18639;50.716;7.086;2022-09-03T00:02:06;99960.22;;;17.95;54.07
32131;BME280;18639;50.716;7.086;2022-09-03T00:07:15;99955.91;;;17.78;54.72
32131;BME280;18639;50.716;7.086;2022-09-03T00:09:46;99961.13;;;17.78;54.26
32131;BME280;18639;50.716;7.086;2022-09-03T00:12:18;99948.31;;;17.67;54.97
32131;BME280;18639;50.716;7.086;2022-09-03T00:14:50;99952.19;;;17.63;55.10
32131;BME280;18639;50.716;7.086;2022-09-03T00:17:21;99945.16;;;17.63;55.00
32131;BME280;18639;50.716;7.086;2022-09-03T00:20:02;99948.53;;;17.56;55.60
32131;BME280;18639;50.716;7.086;2022-09-03T00:22:32;99947.56;;;17.57;55.96
32131;BME280;18639;50.716;7.086;2022-09-03T00:25:03;99949.81;;;17.52;56.60
32131;BME280;18639;50.716;7.086;2022-09-03T00:27:31;99948.47;;;17.48;56.74
32131;BME280;18639;50.716;7.086;2022-09-03T00:30:05;99944.03;;;17.40;56.63
32131;BME280;18639;50.716;7.086;2022-09-03T00:32:42;99954.63;;;17.39;56.55
32131;BME280;18639;50.716;7.086;2022-09-03T00:35:35;99945.28;;;17.36;56.44
32131;BME280;18639;50.716;7.086;2022-09-03T00:38:02;99951.63;;;17.34;57.02
32131;BME280;18639;50.716;7.086;2022-09-03T00:45:50;99949.25;;;17.22;57.96
32131;BME280;18639;50.716;7.086;2022-09-03T00:48:29;99944.78;;;17.15;58.39
32131;BME280;18639;50.716;7.086;2022-09-03T00:56:48;99938.63;;;16.98;59.35
32131;BME280;18639;50.716;7.086;2022-09-03T00:59:34;99953.97;;;17.01;59.28
32131;BME280;18639;50.716;7.086;2022-09-03T01:02:14;99941.53;;;16.95;59.04
32131;BME280;18639;50.716;7.086;2022-09-03T01:04:58;99943.47;;;16.93;59.31
32131;BME280;18639;50.716;7.086;2022-09-03T01:07:36;99943.75;;;16.90;60.03
32131;BME280;18639;50.716;7.086;2022-09-03T01:10:26;99930.28;;;16.77;60.41
32131;BME280;18639;50.716;7.086;2022-09-03T01:13:07;99943.69;;;16.82;60.78
32131;BME280;18639;50.716;7.086;2022-09-03T01:15:51;99948.59;;;16.85;60.88
32131;BME280;18639;50.716;7.086;2022-09-03T01:27:44;99942.19;;;16.79;60.17
32131;BME280;18639;50.716;7.086;2022-09-03T01:30:20;99936.75;;;16.73;60.69
32131;BME280;18639;50.716;7.086;2022-09-03T01:35:46;99945.94;;;16.77;60.29
32131;BME280;18639;50.716;7.086;2022-09-03T01:44:01;99941.97;;;16.73;60.77
32131;BME280;18639;50.716;7.086;2022-09-03T01:46:39;99935.41;;;16.69;60.54
32131;BME280;18639;50.716;7.086;2022-09-03T01:49:14;99928.41;;;16.69;60.75
32131;BME280;18639;50.716;7.086;2022-09-03T01:51:55;99908.84;;;16.56;59.92
32131;BME280;18639;50.716;7.086;2022-09-03T01:54:43;99933.84;;;16.76;60.71
32131;BME280;18639;50.716;7.086;2022-09-03T01:57:34;99935.31;;;16.78;61.10
32131;BME280;18639;50.716;7.086;2022-09-03T02:00:10;99923.03;;;16.71;60.95
32131;BME280;18639;50.716;7.086;2022-09-03T02:02:38;99922.88;;;16.72;60.76
32131;BME280;18639;50.716;7.086;2022-09-03T02:10:07;99935.25;;;16.88;60.28
32131;BME280;18639;50.716;7.086;2022-09-03T02:12:34;99929.66;;;16.83;60.14
32131;BME280;18639;50.716;7.086;2022-09-03T02:15:06;99925.94;;;16.86;60.04
32131;BME280;18639;50.716;7.086;2022-09-03T02:17:34;99918.25;;;16.84;59.73
32131;BME280;18639;50.716;7.086;2022-09-03T02:20:05;99923.19;;;16.87;59.68
32131;BME280;18639;50.716;7.086;2022-09-03T02:22:32;99902.97;;;16.71;60.15
32131;BME280;18639;50.716;7.086;2022-09-03T02:24:59;99903.03;;;16.79;60.37
32131;BME280;18639;50.716;7.086;2022-09-03T02:27:24;99908.94;;;16.81;59.82
32131;BME280;18639;50.716;7.086;2022-09-03T02:29:50;99920.34;;;16.80;60.34
32131;BME280;18639;50.716;7.086;2022-09-03T02:32:15;99915.00;;;16.82;61.09
32131;BME280;18639;50.716;7.086;2022-09-03T02:34:41;99922.50;;;16.85;61.79
32131;BME280;18639;50.716;7.086;2022-09-03T02:37:16;99897.22;;;16.68;61.81
32131;BME280;18639;50.716;7.086;2022-09-03T02:39:42;99915.28;;;16.79;61.79
32131;BME280;18639;50.716;7.086;2022-09-03T02:42:09;99924.88;;;16.78;61.88
32131;BME280;18639;50.716;7.086;2022-09-03T02:44:38;99925.34;;;16.74;61.90
32131;BME280;18639;50.716;7.086;2022-09-03T02:47:06;99922.22;;;16.70;62.13
32131;BME280;18639;50.716;7.086;2022-09-03T02:49:32;99930.88;;;16.71;62.04
32131;BME280;18639;50.716;7.086;2022-09-03T02:52:03;99923.31;;;16.68;62.17
32131;BME280;18639;50.716;7.086;2022-09-03T02:54:34;99896.38;;;16.50;62.58
32131;BME280;18639;50.716;7.086;2022-09-03T02:57:04;99899.25;;;16.47;62.54
32131;BME280;18639;50.716;7.086;2022-09-03T02:59:30;99915.47;;;16.50;62.84
32131;BME280;18639;50.716;7.086;2022-09-03T03:01:55;99929.72;;;16.56;63.13
32131;BME280;18639;50.716;7.086;2022-09-03T03:04:21;99928.06;;;16.55;62.74
32131;BME280;18639;50.716;7.086;2022-09-03T03:06:46;99927.50;;;16.51;62.81
32131;BME280;18639;50.716;7.086;2022-09-03T03:09:14;99904.25;;;16.40;62.75
32131;BME280;18639;50.716;7.086;2022-09-03T03:11:40;99923.44;;;16.49;62.98
32131;BME280;18639;50.716;7.086;2022-09-03T03:14:05;99920.00;;;16.48;63.46
32131;BME280;18639;50.716;7.086;2022-09-03T03:16:30;99922.75;;;16.47;63.07
32131;BME280;18639;50.716;7.086;2022-09-03T03:18:56;99890.88;;;16.25;63.46
32131;BME280;18639;50.716;7.086;2022-09-03T03:21:21;99920.88;;;16.39;63.63
32131;BME280;18639;50.716;7.086;2022-09-03T03:23:47;99921.53;;;16.41;64.31
32131;BME280;18639;50.716;7.086;2022-09-03T03:26:14;99924.16;;;16.41;64.48
32131;BME280;18639;50.716;7.086;2022-09-03T03:28:42;99916.78;;;16.36;64.76
32131;BME280;18639;50.716;7.086;2022-09-03T03:31:12;99901.31;;;16.25;64.78
32131;BME280;18639;50.716;7.086;2022-09-03T03:33:40;99921.03;;;16.37;64.65
32131;BME280;18639;50.716;7.086;2022-09-03T03:36:07;99910.34;;;16.31;64.70
32131;BME280;18639;50.716;7.086;2022-09-03T03:38:34;99923.94;;;16.34;64.75
32131;BME280;18639;50.716;7.086;2022-09-03T03:41:09;99901.91;;;16.19;65.05
32131;BME280;18639;50.716;7.086;2022-09-03T03:43:34;99916.69;;;16.28;65.18
32131;BME280;18639;50.716;7.086;2022-09-03T03:46:00;99912.44;;;16.27;65.56
32131;BME280;18639;50.716;7.086;2022-09-03T03:48:25;99897.69;;;16.18;65.25
32131;BME280;18639;50.716;7.086;2022-09-03T03:50:51;99920.25;;;16.27;65.50
32131;BME280;18639;50.716;7.086;2022-09-03T03:53:17;99917.13;;;16.24;65.35
32131;BME280;18639;50.716;7.086;2022-09-03T03:55:43;99918.09;;;16.23;65.70
32131;BME280;18639;50.716;7.086;2022-09-03T03:58:08;99917.78;;;16.26;65.68
32131;BME280;18639;50.716;7.086;2022-09-03T04:00:33;99911.91;;;16.24;65.87
32131;BME280;18639;50.716;7.086;2022-09-03T04:03:03;99916.00;;;16.26;65.25
32131;BME280;18639;50.716;7.086;2022-09-03T04:05:29;99915.03;;;16.27;65.20
32131;BME280;18639;50.716;7.086;2022-09-03T04:07:54;99906.25;;;16.28;65.36
32131;BME280;18639;50.716;7.086;2022-09-03T04:10:19;99920.78;;;16.31;65.16
32131;BME280;18639;50.716;7.086;2022-09-03T04:12:45;99903.28;;;16.23;65.54
32131;BME280;18639;50.716;7.086;2022-09-03T04:15:10;99916.09;;;16.34;66.20
32131;BME280;18639;50.716;7.086;2022-09-03T04:17:35;99871.13;;;16.05;66.02
32131;BME280;18639;50.716;7.086;2022-09-03T04:20:01;99919.69;;;16.33;65.90
32131;BME280;18639;50.716;7.086;2022-09-03T04:22:27;99911.03;;;16.33;66.14
32131;BME280;18639;50.716;7.086;2022-09-03T04:24:53;99908.28;;;16.34;65.42
32131;BME280;18639;50.716;7.086;2022-09-03T04:27:18;99916.50;;;16.39;66.26
32131;BME280;18639;50.716;7.086;2022-09-03T04:29:44;99910.06;;;16.34;66.70
32131;BME280;18639;50.716;7.086;2022-09-03T04:32:09;99906.63;;;16.33;66.62
32131;BME280;18639;50.716;7.086;2022-09-03T04:34:53;99910.91;;;16.34;66.45
32131;BME280;18639;50.716;7.086;2022-09-03T04:37:18;99886.38;;;16.27;66.20
32131;BME280;18639;50.716;7.086;2022-09-03T04:39:44;99903.34;;;16.31;66.28
32131;BME280;18639;50.716;7.086;2022-09-03T04:42:09;99901.81;;;16.38;67.18
32131;BME280;18639;50.716;7.086;2022-09-03T04:44:34;99882.88;;;16.36;66.71
32131;BME280;18639;50.716;7.086;2022-09-03T04:47:03;99906.13;;;16.48;65.51
32131;BME280;18639;50.716;7.086;2022-09-03T04:49:28;99895.41;;;16.51;64.21
32131;BME280;18639;50.716;7.086;2022-09-03T04:51:54;99909.91;;;16.63;63.68
32131;BME280;18639;50.716;7.086;2022-09-03T04:54:19;99911.22;;;16.67;63.37
32131;BME280;18639;50.716;7.086;2022-09-03T04:56:44;99904.47;;;16.74;62.78
32131;BME280;18639;50.716;7.086;2022-09-03T04:59:10;99897.97;;;16.78;61.09
32131;BME280;18639;50.716;7.086;2022-09-03T05:01:37;99914.09;;;16.91;63.18
32131;BME280;18639;50.716;7.086;2022-09-03T05:04:03;99916.25;;;16.96;63.11
32131;BME280;18639;50.716;7.086;2022-09-03T05:06:30;99903.88;;;16.98;60.75
32131;BME280;18639;50.716;7.086;2022-09-03T05:08:55;99915.03;;;17.08;59.88
32131;BME280;18639;50.716;7.086;2022-09-03T05:11:22;99907.44;;;17.14;60.06
32131;BME280;18639;50.716;7.086;2022-09-03T05:13:50;99913.22;;;17.26;60.98
32131;BME280;18639;50.716;7.086;2022-09-03T05:16:17;99909.94;;;17.24;60.52
32131;BME280;18639;50.716;7.086;2022-09-03T05:18:43;99892.94;;;17.20;60.22
32131;BME280;18639;50.716;7.086;2022-09-03T05:21:11;99879.97;;;17.10;59.20
32131;BME280;18639;50.716;7.086;2022-09-03T05:23:38;99915.09;;;17.42;58.44
32131;BME280;18639;50.716;7.086;2022-09-03T05:26:06;99908.41;;;17.39;57.89
32131;BME280;18639;50.716;7.086;2022-09-03T05:28:36;99920.41;;;17.50;61.19
32131;BME280;18639;50.716;7.086;2022-09-03T05:31:04;99914.03;;;17.52;59.76
32131;BME280;18639;50.716;7.086;2022-09-03T05:33:38;99907.38;;;17.58;59.32
32131;BME280;18639;50.716;7.086;2022-09-03T05:36:06;99913.59;;;17.57;58.82
32131;BME280;18639;50.716;7.086;2022-09-03T05:38:32;99917.25;;;17.64;58.00
32131;BME280;18639;50.716;7.086;2022-09-03T05:41:02;99911.19;;;17.63;58.08
32131;BME280;18639;50.716;7.086;2022-09-03T05:43:30;99920.88;;;17.71;57.38
32131;BME280;18639;50.716;7.086;2022-09-03T05:45:59;99909.75;;;17.69;56.59
32131;BME280;18639;50.716;7.086;2022-09-03T05:48:26;99906.78;;;17.64;56.29
32131;BME280;18639;50.716;7.086;2022-09-03T05:51:03;99907.47;;;17.66;56.52
32131;BME280;18639;50.716;7.086;2022-09-03T05:53:31;99914.38;;;17.75;57.19
32131;BME280;18639;50.716;7.086;2022-09-03T05:55:58;99925.78;;;17.74;56.55
32131;BME280;18639;50.716;7.086;2022-09-03T05:58:29;99916.84;;;17.77;57.40
32131;BME280;18639;50.716;7.086;2022-09-03T06:00:54;99917.34;;;17.80;56.85
32131;BME280;18639;50.716;7.086;2022-09-03T06:03:20;99920.97;;;17.87;55.71
32131;BME280;18639;50.716;7.086;2022-09-03T06:05:52;99917.75;;;17.93;56.43
32131;BME280;18639;50.716;7.086;2022-09-03T06:08:19;99906.75;;;17.90;56.24
32131;BME280;18639;50.716;7.086;2022-09-03T06:10:45;99930.88;;;18.09;56.37
32131;BME280;18639;50.716;7.086;2022-09-03T06:13:10;99903.25;;;18.07;55.89
32131;BME280;18639;50.716;7.086;2022-09-03T06:15:36;99938.31;;;18.38;55.94
32131;BME280;18639;50.716;7.086;2022-09-03T06:18:05;99933.63;;;18.42;55.74
32131;BME280;18639;50.716;7.086;2022-09-03T06:20:43;99937.72;;;18.52;55.39
32131;BME280;18639;50.716;7.086;2022-09-03T06:23:08;99932.69;;;18.59;54.11
32131;BME280;18639;50.716;7.086;2022-09-03T06:25:34;99932.88;;;18.66;54.74
32131;BME280;18639;50.716;7.086;2022-09-03T06:27:59;99943.19;;;18.75;55.24
32131;BME280;18639;50.716;7.086;2022-09-03T06:30:26;99929.78;;;18.78;53.12
32131;BME280;18639;50.716;7.086;2022-09-03T06:32:51;99917.19;;;18.82;52.98
32131;BME280;18639;50.716;7.086;2022-09-03T06:35:18;99928.50;;;18.90;53.65
32131;BME280;18639;50.716;7.086;2022-09-03T06:37:43;99920.66;;;18.90;52.88
32131;BME280;18639;50.716;7.086;2022-09-03T06:40:09;99935.03;;;19.03;53.65
32131;BME280;18639;50.716;7.086;2022-09-03T06:42:39;99924.09;;;18.99;52.42
32131;BME280;18639;50.716;7.086;2022-09-03T06:45:07;99937.34;;;19.06;52.64
32131;BME280;18639;50.716;7.086;2022-09-03T06:47:32;99929.81;;;18.95;53.11
32131;BME280;18639;50.716;7.086;2022-09-03T06:49:58;99933.41;;;18.93;52.94
32131;BME280;18639;50.716;7.086;2022-09-03T06:52:24;99933.41;;;18.93;52.39
32131;BME280;18639;50.716;7.086;2022-09-03T06:54:50;99922.94;;;18.85;53.98
32131;BME280;18639;50.716;7.086;2022-09-03T06:57:15;99930.31;;;18.90;54.44
32131;BME280;18639;50.716;7.086;2022-09-03T06:59:41;99939.31;;;18.96;53.70
32131;BME280;18639;50.716;7.086;2022-09-03T07:02:07;99933.75;;;18.90;53.29
32131;BME280;18639;50.716;7.086;2022-09-03T07:04:33;99946.50;;;18.85;52.88
32131;BME280;18639;50.716;7.086;2022-09-03T07:06:58;99930.09;;;18.75;53.50
32131;BME280;18639;50.716;7.086;2022-09-03T07:09:24;99953.34;;;18.86;53.91
32131;BME280;18639;50.716;7.086;2022-09-03T07:11:51;99948.94;;;18.87;53.57
32131;BME280;18639;50.716;7.086;2022-09-03T07:14:18;99956.63;;;18.72;53.45
32131;BME280;18639;50.716;7.086;2022-09-03T07:16:44;99966.94;;;18.74;53.65
32131;BME280;18639;50.716;7.086;2022-09-03T07:19:10;99970.53;;;18.73;55.22
32131;BME280;18639;50.716;7.086;2022-09-03T07:21:38;99971.66;;;18.62;55.28
32131;BME280;18639;50.716;7.086;2022-09-03T07:24:07;99976.88;;;18.62;56.09
32131;BME280;18639;50.716;7.086;2022-09-03T07:26:35;99957.19;;;18.50;59.39
32131;BME280;18639;50.716;7.086;2022-09-03T07:29:02;99961.19;;;18.28;59.69
32131;BME280;18639;50.716;7.086;2022-09-03T07:31:33;99975.28;;;18.35;61.56
32131;BME280;18639;50.716;7.086;2022-09-03T07:34:01;99951.28;;;18.06;66.07
32131;BME280;18639;50.716;7.086;2022-09-03T07:36:33;99974.31;;;18.02;71.38
32131;BME280;18639;50.716;7.086;2022-09-03T07:38:59;99967.97;;;17.79;72.72
32131;BME280;18639;50.716;7.086;2022-09-03T07:41:25;99947.84;;;17.54;73.04
32131;BME280;18639;50.716;7.086;2022-09-03T07:43:52;99971.16;;;17.47;76.89
32131;BME280;18639;50.716;7.086;2022-09-03T07:46:22;99979.09;;;17.38;78.72
32131;BME280;18639;50.716;7.086;2022-09-03T07:48:49;99977.53;;;17.27;80.49
32131;BME280;18639;50.716;7.086;2022-09-03T07:51:15;99978.94;;;17.21;83.56
32131;BME280;18639;50.716;7.086;2022-09-03T07:53:41;99997.19;;;17.13;83.07
32131;BME280;18639;50.716;7.086;2022-09-03T07:56:08;99991.28;;;17.11;83.77
32131;BME280;18639;50.716;7.086;2022-09-03T07:58:41;99976.13;;;16.97;83.90
32131;BME280;18639;50.716;7.086;2022-09-03T08:01:18;99976.41;;;16.94;84.32
32131;BME280;18639;50.716;7.086;2022-09-03T08:03:49;99989.19;;;16.97;85.11
32131;BME280;18639;50.716;7.086;2022-09-03T08:06:16;99995.38;;;16.96;83.89
32131;BME280;18639;50.716;7.086;2022-09-03T08:08:42;99978.44;;;16.82;84.42
32131;BME280;18639;50.716;7.086;2022-09-03T08:11:16;99999.84;;;16.86;85.35
32131;BME280;18639;50.716;7.086;2022-09-03T08:13:44;99995.28;;;16.88;86.83
32131;BME280;18639;50.716;7.086;2022-09-03T08:16:15;100001.78;;;16.84;86.65
32131;BME280;18639;50.716;7.086;2022-09-03T08:18:42;99993.88;;;16.76;86.50
32131;BME280;18639;50.716;7.086;2022-09-03T08:21:15;99989.31;;;16.78;88.21
32131;BME280;18639;50.716;7.086;2022-09-03T08:23:46;100000.34;;;16.72;86.84
32131;BME280;18639;50.716;7.086;2022-09-03T08:26:39;99997.00;;;16.79;87.41
32131;BME280;18639;50.716;7.086;2022-09-03T08:29:06;99977.66;;;16.72;87.38
32131;BME280;18639;50.716;7.086;2022-09-03T08:31:33;99993.44;;;16.98;88.70
32131;BME280;18639;50.716;7.086;2022-09-03T08:34:00;99990.31;;;17.12;86.46
32131;BME280;18639;50.716;7.086;2022-09-03T08:36:32;99986.13;;;17.19;85.89
32131;BME280;18639;50.716;7.086;2022-09-03T08:38:59;99997.97;;;17.49;86.45
32131;BME280;18639;50.716;7.086;2022-09-03T08:41:59;99997.44;;;17.63;84.70
32131;BME280;18639;50.716;7.086;2022-09-03T08:48:06;99987.31;;;17.86;79.27
32131;BME280;18639;50.716;7.086;2022-09-03T08:50:40;99990.94;;;17.93;79.80
32131;BME280;18639;50.716;7.086;2022-09-03T08:53:26;100000.25;;;17.96;79.08
32131;BME280;18639;50.716;7.086;2022-09-03T08:55:58;100001.28;;;18.03;79.73
32131;BME280;18639;50.716;7.086;2022-09-03T08:58:36;99998.63;;;18.21;79.73
32131;BME280;18639;50.716;7.086;2022-09-03T09:07:15;99993.34;;;19.37;77.62
32131;BME280;18639;50.716;7.086;2022-09-03T09:09:49;100003.84;;;19.61;72.25
32131;BME280;18639;50.716;7.086;2022-09-03T09:20:58;99976.47;;;19.40;70.71
32131;BME280;18639;50.716;7.086;2022-09-03T09:23:37;99981.75;;;19.48;70.84
32131;BME280;18639;50.716;7.086;2022-09-03T09:26:06;99991.75;;;19.60;73.80
32131;BME280;18639;50.716;7.086;2022-09-03T09:28:35;99989.03;;;19.93;73.07
32131;BME280;18639;50.716;7.086;2022-09-03T09:31:03;99991.09;;;20.91;72.56
32131;BME280;18639;50.716;7.086;2022-09-03T09:33:30;99982.00;;;22.00;68.61
32131;BME280;18639;50.716;7.086;2022-09-03T09:36:06;99983.00;;;22.79;58.46
32131;BME280;18639;50.716;7.086;2022-09-03T09:38:34;99980.31;;;22.93;56.91
32131;BME280;18639;50.716;7.086;2022-09-03T09:41:15;99971.09;;;23.46;56.52
32131;BME280;18639;50.716;7.086;2022-09-03T09:43:41;99983.16;;;24.18;51.79
32131;BME280;18639;50.716;7.086;2022-09-03T09:46:19;99976.88;;;24.19;54.06
32131;BME280;18639;50.716;7.086;2022-09-03T09:48:56;99965.84;;;24.56;53.23
32131;BME280;18639;50.716;7.086;2022-09-03T09:51:27;99968.03;;;25.27;51.42
32131;BME280;18639;50.716;7.086;2022-09-03T09:54:15;99979.81;;;25.50;46.00
32131;BME280;18639;50.716;7.086;2022-09-03T09:56:44;99971.47;;;25.80;45.56
32131;BME280;18639;50.716;7.086;2022-09-03T09:59:26;99967.06;;;26.18;46.51
32131;BME280;18639;50.716;7.086;2022-09-03T10:02:03;99980.06;;;26.39;44.97
32131;BME280;18639;50.716;7.086;2022-09-03T10:04:31;99967.84;;;26.76;45.40
32131;BME280;18639;50.716;7.086;2022-09-03T10:07:14;99947.28;;;27.03;44.08
32131;BME280;18639;50.716;7.086;2022-09-03T10:12:43;99979.63;;;25.45;44.92
32131;BME280;18639;50.716;7.086;2022-09-03T10:15:27;99968.41;;;25.24;48.27
32131;BME280;18639;50.716;7.086;2022-09-03T10:18:01;99981.13;;;24.67;47.30
32131;BME280;18639;50.716;7.086;2022-09-03T10:20:35;99964.53;;;23.98;49.82
32131;BME280;18639;50.716;7.086;2022-09-03T10:28:24;99985.28;;;22.67;54.49
32131;BME280;18639;50.716;7.086;2022-09-03T10:31:16;99986.34;;;22.37;55.15
32131;BME280;18639;50.716;7.086;2022-09-03T10:34:05;99978.66;;;22.20;56.11
32131;BME280;18639;50.716;7.086;2022-09-03T10:40:05;99975.16;;;21.91;57.82
32131;BME280;18639;50.716;7.086;2022-09-03T10:42:45;99984.00;;;21.98;59.08
32131;BME280;18639;50.716;7.086;2022-09-03T10:45:27;99973.34;;;21.91;59.26
32131;BME280;18639;50.716;7.086;2022-09-03T10:48:14;99969.09;;;21.90;59.63
32131;BME280;18639;50.716;7.086;2022-09-03T10:53:28;99981.63;;;22.03;59.54
32131;BME280;18639;50.716;7.086;2022-09-03T10:56:16;99980.91;;;22.09;59.44
32131;BME280;18639;50.716;7.086;2022-09-03T11:01:40;99984.63;;;22.14;58.01
32131;BME280;18639;50.716;7.086;2022-09-03T11:04:16;99978.56;;;21.99;58.62
32131;BME280;18639;50.716;7.086;2022-09-03T11:06:51;99964.91;;;21.81;61.05
32131;BME280;18639;50.716;7.086;2022-09-03T11:09:25;99972.91;;;21.88;60.44
32131;BME280;18639;50.716;7.086;2022-09-03T11:11:59;99967.63;;;21.88;61.74
32131;BME280;18639;50.716;7.086;2022-09-03T11:14:37;99979.94;;;21.95;62.63
32131;BME280;18639;50.716;7.086;2022-09-03T11:17:18;99976.53;;;22.01;60.39
32131;BME280;18639;50.716;7.086;2022-09-03T11:20:04;99958.94;;;22.02;61.22
32131;BME280;18639;50.716;7.086;2022-09-03T11:22:34;99963.56;;;22.14;59.50
32131;BME280;18639;50.716;7.086;2022-09-03T11:25:01;99961.03;;;22.06;59.99
32131;BME280;18639;50.716;7.086;2022-09-03T11:27:45;99965.50;;;22.06;59.62
32131;BME280;18639;50.716;7.086;2022-09-03T11:30:22;99958.13;;;22.01;60.50
32131;BME280;18639;50.716;7.086;2022-09-03T11:32:51;99951.94;;;22.23;61.61
32131;BME280;18639;50.716;7.086;2022-09-03T11:35:40;99952.81;;;22.45;59.53
32131;BME280;18639;50.716;7.086;2022-09-03T11:41:03;99947.44;;;22.53;59.23
32131;BME280;18639;50.716;7.086;2022-09-03T11:43:36;99941.72;;;22.50;58.31
32131;BME280;18639;50.716;7.086;2022-09-03T11:46:10;99943.00;;;22.54;59.23
32131;BME280;18639;50.716;7.086;2022-09-03T11:48:44;99940.66;;;22.65;58.93
32131;BME280;18639;50.716;7.086;2022-09-03T11:53:53;99929.75;;;22.83;59.17
32131;BME280;18639;50.716;7.086;2022-09-03T11:56:19;99927.13;;;22.68;59.18
32131;BME280;18639;50.716;7.086;2022-09-03T11:58:45;99913.53;;;22.65;58.91
32131;BME280;18639;50.716;7.086;2022-09-03T12:01:13;99927.97;;;22.69;59.59
32131;BME280;18639;50.716;7.086;2022-09-03T12:03:48;99917.00;;;22.51;59.22
32131;BME280;18639;50.716;7.086;2022-09-03T12:09:46;99920.28;;;22.53;60.98
32131;BME280;18639;50.716;7.086;2022-09-03T12:18:13;99922.78;;;22.61;60.99
32131;BME280;18639;50.716;7.086;2022-09-03T12:23:39;99913.59;;;22.72;60.21
32131;BME280;18639;50.716;7.086;2022-09-03T12:26:13;99920.59;;;22.79;60.26
32131;BME280;18639;50.716;7.086;2022-09-03T12:28:44;99906.41;;;22.80;60.86
32131;BME280;18639;50.716;7.086;2022-09-03T12:31:21;99905.97;;;22.77;60.24
32131;BME280;18639;50.716;7.086;2022-09-03T12:33:54;99899.69;;;22.78;60.36
32131;BME280;18639;50.716;7.086;2022-09-03T12:36:23;99915.19;;;22.87;60.43
32131;BME280;18639;50.716;7.086;2022-09-03T12:38:50;99904.38;;;23.03;59.78
32131;BME280;18639;50.716;7.086;2022-09-03T12:41:28;99907.25;;;23.08;58.41
32131;BME280;18639;50.716;7.086;2022-09-03T12:43:57;99907.81;;;23.04;57.73
32131;BME280;18639;50.716;7.086;2022-09-03T12:46:30;99907.47;;;23.07;57.91
32131;BME280;18639;50.716;7.086;2022-09-03T12:48:57;99902.22;;;23.14;59.22
32131;BME280;18639;50.716;7.086;2022-09-03T12:51:31;99897.97;;;23.13;59.18
32131;BME280;18639;50.716;7.086;2022-09-03T12:53:57;99903.25;;;23.13;58.58
32131;BME280;18639;50.716;7.086;2022-09-03T12:56:24;99898.97;;;23.12;58.58
32131;BME280;18639;50.716;7.086;2022-09-03T12:58:57;99897.75;;;23.07;58.94
32131;BME280;18639;50.716;7.086;2022-09-03T13:01:32;99885.34;;;23.08;59.33
32131;BME280;18639;50.716;7.086;2022-09-03T13:04:05;99884.25;;;22.96;59.62
32131;BME280;18639;50.716;7.086;2022-09-03T13:06:45;99896.22;;;22.98;59.42
32131;BME280;18639;50.716;7.086;2022-09-03T13:09:19;99899.09;;;23.03;58.99
32131;BME280;18639;50.716;7.086;2022-09-03T13:11:47;99874.94;;;23.00;59.04
32131;BME280;18639;50.716;7.086;2022-09-03T13:14:13;99886.41;;;23.14;59.54
32131;BME280;18639;50.716;7.086;2022-09-03T13:22:04;99874.22;;;23.40;57.92
32131;BME280;18639;50.716;7.086;2022-09-03T13:27:34;99882.06;;;23.55;57.22
32131;BME280;18639;50.716;7.086;2022-09-03T13:30:31;99875.56;;;23.58;56.85
32131;BME280;18639;50.716;7.086;2022-09-03T13:33:20;99880.53;;;23.74;57.29
32131;BME280;18639;50.716;7.086;2022-09-03T13:36:03;99878.72;;;23.74;56.77
32131;BME280;18639;50.716;7.086;2022-09-03T13:41:42;99882.22;;;23.81;57.29
32131;BME280;18639;50.716;7.086;2022-09-03T13:44:17;99875.94;;;23.82;56.52
32131;BME280;18639;50.716;7.086;2022-09-03T13:46:54;99884.22;;;23.79;57.21
32131;BME280;18639;50.716;7.086;2022-09-03T13:49:39;99886.72;;;23.87;57.03
32131;BME280;18639;50.716;7.086;2022-09-03T13:52:31;99886.53;;;23.96;55.74
32131;BME280;18639;50.716;7.086;2022-09-03T13:55:09;99877.38;;;23.91;55.56
32131;BME280;18639;50.716;7.086;2022-09-03T13:57:44;99873.97;;;23.98;56.14
32131;BME280;18639;50.716;7.086;2022-09-03T14:00:12;99886.53;;;23.96;56.29
32131;BME280;18639;50.716;7.086;2022-09-03T14:05:33;99876.34;;;23.86;55.89
32131;BME280;18639;50.716;7.086;2022-09-03T14:08:11;99870.63;;;23.76;56.71
32131;BME280;18639;50.716;7.086;2022-09-03T14:11:01;99872.06;;;23.85;56.52
32131;BME280;18639;50.716;7.086;2022-09-03T14:16:17;99869.19;;;23.80;56.74
32131;BME280;18639;50.716;7.086;2022-09-03T14:18:53;99869.03;;;23.81;56.37
32131;BME280;18639;50.716;7.086;2022-09-03T14:21:24;99866.16;;;23.76;56.15
32131;BME280;18639;50.716;7.086;2022-09-03T14:24:11;99876.75;;;23.89;55.79
32131;BME280;18639;50.716;7.086;2022-09-03T14:27:20;99836.44;;;23.61;55.79
32131;BME280;18639;50.716;7.086;2022-09-03T14:33:54;99824.72;;;23.70;55.95
32131;BME280;18639;50.716;7.086;2022-09-03T15:13:06;99890.81;;;24.51;57.55
32131;BME280;18639;50.716;7.086;2022-09-03T15:31:54;99918.44;;;24.48;57.14
32131;BME280;18639;50.716;7.086;2022-09-03T15:37:22;99922.94;;;24.07;64.46
32131;BME280;18639;50.716;7.086;2022-09-03T15:39:59;99920.34;;;23.79;66.81
32131;BME280;18639;50.716;7.086;2022-09-03T15:42:27;99928.53;;;23.56;67.85
32131;BME280;18639;50.716;7.086;2022-09-03T15:45:01;99921.66;;;23.34;69.49
32131;BME280;18639;50.716;7.086;2022-09-03T15:48:07;99934.25;;;23.11;70.31
32131;BME280;18639;50.716;7.086;2022-09-03T15:50:48;99931.63;;;22.89;71.07
32131;BME280;18639;50.716;7.086;2022-09-03T15:53:27;99938.41;;;22.77;76.39
32131;BME280;18639;50.716;7.086;2022-09-03T15:56:21;99938.72;;;22.53;80.08
32131;BME280;18639;50.716;7.086;2022-09-03T15:58:54;99940.25;;;22.26;85.67
32131;BME280;18639;50.716;7.086;2022-09-03T16:01:27;99942.28;;;21.95;84.40
32131;BME280;18639;50.716;7.086;2022-09-03T16:06:49;99958.03;;;21.42;85.90
32131;BME280;18639;50.716;7.086;2022-09-03T16:09:44;99965.16;;;21.19;91.27
32131;BME280;18639;50.716;7.086;2022-09-03T16:12:56;99975.09;;;21.01;94.93
32131;BME280;18639;50.716;7.086;2022-09-03T16:15:27;99973.94;;;20.81;98.61